Staunton, Illinois
Current Conditions -  °F | °C
As of 6:35 AM on Monday 24 Nov 2014 (Local Time) from K3LF Reporting Station
Overcast Overcast  
Wind Chill: 24°   Ceiling: 1500
Heat Index: 35°   Visibility: 10mi
Dew Point: 32°   Wind: 22mph
Humidity: 89%   Direction: 270°W
Pressure: 29.43"   Gusts: 29mph
Location:  39.01°N, 89.79°W
Report Text: K3LF 241235Z AUTO 27019G25KT 10SM BKN015 OVC020 02/00 A2943 RMK AO2 T00170000
Loading
Personal Weather Stations






























Interactive Weather Map New forecast layout! Learn more

10-Day Weather Forecast

Advertisements
Track Severe Weather on mobile